Time;durP1;ratioP1;P1;durP2;ratioP2;P2;SDS_P1;SDS_P2;PMS_P1;PMS_P2;Temp;Humidity;BMP_temperature;BMP_pressure;BME280_temperature;BME280_humidity;BME280_pressure;Samples;Min_cycle;Max_cycle;Signal;HPM_P1;HPM_P2
2022/12/25 00:00:33;;;;;;;403.43;183.70;;;;;;;;;;4992795;28;20264;-50
2022/12/25 00:03:00;;;;;;;416.73;189.03;;;;;;;;;;4988332;28;20224;-50
2022/12/25 00:05:26;;;;;;;408.90;186.93;;;;;;;;;;4988781;28;20212;-50
2022/12/25 00:07:52;;;;;;;590.30;269.57;;;;;;;;;;4986783;28;20722;-51
2022/12/25 00:10:18;;;;;;;530.63;239.40;;;;;;;;;;4978485;28;20851;-50
2022/12/25 00:12:44;;;;;;;504.23;236.03;;;;;;;;;;4982056;28;20483;-51
2022/12/25 00:15:10;;;;;;;550.10;261.43;;;;;;;;;;4978316;28;20271;-50
2022/12/25 00:17:36;;;;;;;529.20;245.77;;;;;;;;;;4982339;28;20316;-50
2022/12/25 00:20:02;;;;;;;621.73;296.70;;;;;;;;;;4974901;28;20224;-50
2022/12/25 00:22:29;;;;;;;520.20;245.63;;;;;;;;;;4977430;28;20380;-50
2022/12/25 00:24:55;;;;;;;377.40;173.93;;;;;;;;;;4973130;28;20234;-50
2022/12/25 00:27:21;;;;;;;512.63;232.07;;;;;;;;;;4981885;28;20240;-50
2022/12/25 00:29:47;;;;;;;543.77;249.37;;;;;;;;;;4980830;28;24812;-50
2022/12/25 00:32:13;;;;;;;490.00;228.10;;;;;;;;;;4982609;28;21532;-50
2022/12/25 00:34:39;;;;;;;526.73;245.70;;;;;;;;;;4981715;28;20212;-50
2022/12/25 00:37:05;;;;;;;542.53;248.77;;;;;;;;;;4980697;28;20908;-51
2022/12/25 00:39:31;;;;;;;537.57;247.43;;;;;;;;;;4987602;28;20773;-51
2022/12/25 00:44:42;;;;;;;533.50;246.10;;;;;;;;;;4972765;28;20575;-51
2022/12/25 00:47:08;;;;;;;503.57;229.10;;;;;;;;;;4981113;28;20300;-51
2022/12/25 00:49:34;;;;;;;629.50;297.73;;;;;;;;;;4973046;28;20691;-50
2022/12/25 00:52:00;;;;;;;569.93;262.03;;;;;;;;;;4979236;28;20177;-50
2022/12/25 00:54:27;;;;;;;526.70;238.27;;;;;;;;;;4979752;28;20710;-50
2022/12/25 00:56:53;;;;;;;532.97;244.90;;;;;;;;;;4981243;28;20217;-50
2022/12/25 00:59:19;;;;;;;513.07;233.23;;;;;;;;;;4961200;28;20227;-50
2022/12/25 01:01:45;;;;;;;456.53;210.33;;;;;;;;;;4973953;28;20251;-50
2022/12/25 01:04:11;;;;;;;571.50;259.63;;;;;;;;;;4979162;28;20228;-50
2022/12/25 01:06:38;;;;;;;581.67;261.90;;;;;;;;;;4965578;28;20213;-50
2022/12/25 01:11:59;;;;;;;513.83;236.40;;;;;;;;;;4940025;28;20266;-50
2022/12/25 01:14:25;;;;;;;521.73;244.60;;;;;;;;;;4966757;28;21013;-50
2022/12/25 01:16:51;;;;;;;562.73;264.60;;;;;;;;;;4967445;28;20904;-50
2022/12/25 01:19:17;;;;;;;542.90;243.23;;;;;;;;;;4964966;28;20286;-50
2022/12/25 01:21:43;;;;;;;469.53;208.43;;;;;;;;;;4976817;28;20251;-50
2022/12/25 01:24:09;;;;;;;610.07;268.83;;;;;;;;;;4967176;28;20983;-50
2022/12/25 01:26:35;;;;;;;546.33;257.40;;;;;;;;;;4970984;28;25887;-50
2022/12/25 01:29:01;;;;;;;654.77;300.13;;;;;;;;;;4968698;28;23908;-50
2022/12/25 01:31:27;;;;;;;583.07;270.10;;;;;;;;;;4961187;28;20719;-50
2022/12/25 01:33:53;;;;;;;591.13;269.10;;;;;;;;;;4968808;28;20306;-50
2022/12/25 01:36:21;;;;;;;513.97;241.10;;;;;;;;;;4977047;28;20251;-50
2022/12/25 01:38:47;;;;;;;538.67;245.03;;;;;;;;;;4978284;28;20233;-50
2022/12/25 01:41:15;;;;;;;579.13;265.87;;;;;;;;;;4952405;28;20268;-50
2022/12/25 01:43:57;;;;;;;482.47;219.63;;;;;;;;;;4978859;28;20201;-50
2022/12/25 01:46:23;;;;;;;536.97;251.23;;;;;;;;;;4960427;28;20608;-51
2022/12/25 01:48:50;;;;;;;626.53;286.00;;;;;;;;;;4972714;28;20311;-50
2022/12/25 01:51:25;;;;;;;604.90;278.30;;;;;;;;;;4954041;28;20735;-51
2022/12/25 01:53:51;;;;;;;453.67;211.37;;;;;;;;;;4976065;28;20660;-50
2022/12/25 01:56:17;;;;;;;480.13;222.27;;;;;;;;;;4971520;28;20217;-50
2022/12/25 01:58:43;;;;;;;443.60;202.90;;;;;;;;;;4970134;28;20181;-50
2022/12/25 02:01:09;;;;;;;598.33;269.80;;;;;;;;;;4966400;28;20182;-53
2022/12/25 02:03:35;;;;;;;487.03;226.50;;;;;;;;;;4967922;28;20248;-50
2022/12/25 02:06:03;;;;;;;651.77;296.70;;;;;;;;;;4975594;28;20808;-51
2022/12/25 02:08:29;;;;;;;472.17;215.17;;;;;;;;;;4961693;28;20213;-50
2022/12/25 02:10:56;;;;;;;513.30;226.87;;;;;;;;;;4966410;28;20485;-50
2022/12/25 02:13:22;;;;;;;505.60;237.60;;;;;;;;;;4970994;28;20218;-50
2022/12/25 02:15:51;;;;;;;569.07;270.87;;;;;;;;;;4973217;28;20306;-50
2022/12/25 02:18:25;;;;;;;448.43;204.27;;;;;;;;;;4968518;28;20216;-50
2022/12/25 02:20:51;;;;;;;553.70;253.43;;;;;;;;;;4978082;28;20637;-50
2022/12/25 02:23:36;;;;;;;573.53;254.77;;;;;;;;;;4972523;28;20296;-50
2022/12/25 02:26:21;;;;;;;473.73;211.27;;;;;;;;;;4966291;28;20221;-50
2022/12/25 02:29:10;;;;;;;523.20;234.87;;;;;;;;;;4968454;28;20405;-51
2022/12/25 02:31:39;;;;;;;446.23;200.70;;;;;;;;;;4954438;28;20735;-50
2022/12/25 02:34:11;;;;;;;435.63;194.93;;;;;;;;;;4951395;28;20290;-51
2022/12/25 02:36:43;;;;;;;455.43;207.03;;;;;;;;;;4988436;28;20217;-50
2022/12/25 02:42:01;;;;;;;570.50;247.63;;;;;;;;;;4970986;28;20461;-51
2022/12/25 03:06:42;;;;;;;405.27;180.43;;;;;;;;;;4971722;28;20254;-50
2022/12/25 03:12:04;;;;;;;457.10;208.03;;;;;;;;;;4968602;28;20881;-50
2022/12/25 03:17:15;;;;;;;431.43;197.33;;;;;;;;;;4968777;28;20287;-50
2022/12/25 03:28:12;;;;;;;512.07;228.70;;;;;;;;;;4970501;28;20275;-50
2022/12/25 03:31:11;;;;;;;405.27;178.83;;;;;;;;;;4960838;28;20220;-50
2022/12/25 03:35:21;;;;;;;507.47;226.90;;;;;;;;;;4963445;28;20295;-50
2022/12/25 03:36:44;;;;;;;571.60;263.03;;;;;;;;;;4980228;28;20723;-50
2022/12/25 04:37:25;;;;;;;438.53;197.77;;;;;;;;;;4970573;28;20654;-50
2022/12/25 04:39:51;;;;;;;642.77;294.97;;;;;;;;;;4956647;28;20550;-50
2022/12/25 04:42:17;;;;;;;625.87;287.77;;;;;;;;;;4958262;28;20214;-50
2022/12/25 04:44:43;;;;;;;484.67;214.73;;;;;;;;;;4975184;28;20221;-50
2022/12/25 04:47:09;;;;;;;632.53;295.00;;;;;;;;;;4962695;28;20638;-50
2022/12/25 04:49:35;;;;;;;557.37;254.90;;;;;;;;;;4933470;28;20569;-50
2022/12/25 04:52:02;;;;;;;665.73;309.03;;;;;;;;;;4974277;28;20173;-50
2022/12/25 04:54:28;;;;;;;590.10;271.47;;;;;;;;;;4968120;28;20855;-50
2022/12/25 04:56:54;;;;;;;634.60;290.00;;;;;;;;;;4989448;28;20269;-50
2022/12/25 04:59:20;;;;;;;632.87;292.90;;;;;;;;;;4967972;28;20228;-50
2022/12/25 05:01:46;;;;;;;604.53;279.50;;;;;;;;;;4967552;28;20966;-50
2022/12/25 05:04:12;;;;;;;475.43;214.00;;;;;;;;;;4973969;28;20669;-50
2022/12/25 05:06:37;;;;;;;532.03;243.57;;;;;;;;;;4976503;28;20243;-50
2022/12/25 05:09:04;;;;;;;696.63;321.80;;;;;;;;;;4966216;28;20676;-50
2022/12/25 05:11:30;;;;;;;644.27;290.50;;;;;;;;;;4956045;28;20221;-50
2022/12/25 05:13:56;;;;;;;638.67;288.77;;;;;;;;;;4974566;28;20657;-50
2022/12/25 05:16:23;;;;;;;600.37;269.27;;;;;;;;;;4970839;28;20276;-50
2022/12/25 05:18:50;;;;;;;520.33;233.57;;;;;;;;;;4964057;28;20536;-50
2022/12/25 05:21:16;;;;;;;587.87;264.43;;;;;;;;;;4966489;28;20582;-51
2022/12/25 05:23:47;;;;;;;674.17;320.13;;;;;;;;;;4969904;28;20544;-50
2022/12/25 05:26:13;;;;;;;572.90;261.87;;;;;;;;;;4975974;28;20249;-50
2022/12/25 05:28:39;;;;;;;587.40;268.33;;;;;;;;;;4970371;28;20369;-50
2022/12/25 05:31:05;;;;;;;676.53;312.00;;;;;;;;;;4970059;28;20177;-50
2022/12/25 05:33:31;;;;;;;618.40;282.50;;;;;;;;;;4958330;28;20232;-50
2022/12/25 05:35:58;;;;;;;575.40;262.07;;;;;;;;;;4974640;28;20216;-50
2022/12/25 05:38:24;;;;;;;578.73;262.07;;;;;;;;;;4971468;28;20421;-50
2022/12/25 05:40:51;;;;;;;584.90;258.47;;;;;;;;;;4964022;28;20780;-50
2022/12/25 05:43:18;;;;;;;650.50;295.57;;;;;;;;;;4970804;28;20497;-50
2022/12/25 05:45:44;;;;;;;515.87;229.20;;;;;;;;;;4966789;28;21419;-50
2022/12/25 05:48:10;;;;;;;740.80;347.90;;;;;;;;;;4969857;28;21960;-50
2022/12/25 05:50:37;;;;;;;620.33;285.53;;;;;;;;;;4961923;28;20228;-50
2022/12/25 05:53:06;;;;;;;569.40;257.13;;;;;;;;;;4970284;28;20256;-50
2022/12/25 05:55:33;;;;;;;624.83;285.07;;;;;;;;;;4968526;28;20950;-50
2022/12/25 05:58:00;;;;;;;559.10;249.27;;;;;;;;;;4977805;28;20600;-50
2022/12/25 06:00:25;;;;;;;517.93;236.07;;;;;;;;;;4968252;28;20403;-50
2022/12/25 06:02:51;;;;;;;507.83;228.17;;;;;;;;;;4970830;28;20213;-50
2022/12/25 06:05:17;;;;;;;649.30;300.43;;;;;;;;;;4972584;28;20556;-50
2022/12/25 06:07:43;;;;;;;703.40;331.20;;;;;;;;;;4965723;28;20691;-50
2022/12/25 06:10:09;;;;;;;587.23;260.57;;;;;;;;;;4968762;28;20216;-50
2022/12/25 06:12:36;;;;;;;608.00;280.83;;;;;;;;;;4969906;28;20566;-50
2022/12/25 06:15:02;;;;;;;595.30;278.80;;;;;;;;;;4956393;28;20276;-50
2022/12/25 06:17:27;;;;;;;579.90;268.20;;;;;;;;;;4969525;28;20231;-50
2022/12/25 06:19:54;;;;;;;557.37;249.27;;;;;;;;;;4970225;28;20267;-50
2022/12/25 06:22:20;;;;;;;545.07;242.53;;;;;;;;;;4969629;28;20520;-50
2022/12/25 06:24:46;;;;;;;603.13;273.77;;;;;;;;;;4974677;28;20282;-50
2022/12/25 06:27:12;;;;;;;501.73;225.53;;;;;;;;;;4956782;28;20670;-50
2022/12/25 06:29:38;;;;;;;577.23;267.37;;;;;;;;;;4969146;28;20212;-50
2022/12/25 06:32:04;;;;;;;568.13;256.33;;;;;;;;;;4967098;28;20599;-50
2022/12/25 06:34:30;;;;;;;673.53;313.90;;;;;;;;;;4969505;28;20205;-50
2022/12/25 06:36:56;;;;;;;581.67;265.70;;;;;;;;;;4969981;28;20216;-51
2022/12/25 06:39:24;;;;;;;673.03;314.10;;;;;;;;;;4967269;28;20282;-50
2022/12/25 06:41:50;;;;;;;530.23;237.27;;;;;;;;;;4974583;28;20519;-50
2022/12/25 06:44:16;;;;;;;580.20;273.20;;;;;;;;;;4954762;28;20221;-50
2022/12/25 06:46:42;;;;;;;643.17;305.17;;;;;;;;;;4972897;28;20521;-50
2022/12/25 06:49:09;;;;;;;627.73;295.67;;;;;;;;;;4968005;28;20263;-51
2022/12/25 06:51:35;;;;;;;569.90;260.83;;;;;;;;;;4967525;28;20224;-50
2022/12/25 06:54:02;;;;;;;628.50;294.43;;;;;;;;;;4968295;28;20222;-52
2022/12/25 06:56:29;;;;;;;508.03;231.37;;;;;;;;;;4971889;28;20649;-50
2022/12/25 06:58:55;;;;;;;565.50;269.03;;;;;;;;;;4971167;28;20308;-50
2022/12/25 07:01:25;;;;;;;512.33;234.00;;;;;;;;;;4943948;28;20669;-50
2022/12/25 07:03:53;;;;;;;661.23;296.63;;;;;;;;;;4967245;28;20216;-51
2022/12/25 07:06:19;;;;;;;573.83;266.60;;;;;;;;;;4965505;28;20299;-51
2022/12/25 07:08:45;;;;;;;630.80;285.20;;;;;;;;;;4963064;28;21025;-51
2022/12/25 07:11:11;;;;;;;478.77;215.50;;;;;;;;;;4973122;28;20265;-51
2022/12/25 07:13:37;;;;;;;459.00;200.53;;;;;;;;;;4972568;28;20201;-51
2022/12/25 07:16:04;;;;;;;506.23;223.70;;;;;;;;;;4982547;28;20242;-51
2022/12/25 07:18:31;;;;;;;508.77;225.37;;;;;;;;;;4976086;28;20221;-52
2022/12/25 07:21:00;;;;;;;644.90;288.97;;;;;;;;;;4972257;28;20826;-51
2022/12/25 07:23:26;;;;;;;475.20;209.40;;;;;;;;;;4973067;28;20797;-51
2022/12/25 07:25:55;;;;;;;662.07;295.53;;;;;;;;;;4980717;28;20212;-52
2022/12/25 07:28:22;;;;;;;514.73;231.80;;;;;;;;;;4981760;28;20255;-51
2022/12/25 07:30:48;;;;;;;708.00;320.40;;;;;;;;;;4969967;28;21047;-51
2022/12/25 07:33:14;;;;;;;566.10;251.60;;;;;;;;;;4973842;28;20224;-51
2022/12/25 07:35:40;;;;;;;603.83;270.93;;;;;;;;;;4983258;28;20428;-52
2022/12/25 07:38:06;;;;;;;614.80;275.23;;;;;;;;;;4975004;28;20767;-51
2022/12/25 07:40:32;;;;;;;606.30;275.97;;;;;;;;;;4975006;28;20275;-52
2022/12/25 07:42:58;;;;;;;723.47;333.30;;;;;;;;;;4976833;28;20220;-51
2022/12/25 07:45:25;;;;;;;546.90;241.83;;;;;;;;;;4978064;28;20308;-51
2022/12/25 07:47:51;;;;;;;531.40;232.33;;;;;;;;;;4979972;28;20221;-52
2022/12/25 07:50:17;;;;;;;658.67;300.83;;;;;;;;;;4957695;28;20928;-51
2022/12/25 07:52:43;;;;;;;554.60;246.90;;;;;;;;;;4974476;28;20437;-52
2022/12/25 07:55:09;;;;;;;618.27;280.17;;;;;;;;;;4967964;28;20172;-52
2022/12/25 07:57:35;;;;;;;505.13;223.50;;;;;;;;;;4973482;28;20201;-52
2022/12/25 08:00:03;;;;;;;655.57;302.10;;;;;;;;;;4969233;28;20236;-51
2022/12/25 08:02:29;;;;;;;808.73;389.57;;;;;;;;;;4949038;28;20267;-51
2022/12/25 08:04:55;;;;;;;825.33;407.27;;;;;;;;;;4921227;28;20220;-51
2022/12/25 08:07:21;;;;;;;536.83;247.73;;;;;;;;;;4941841;28;20272;-51
2022/12/25 08:09:47;;;;;;;584.47;268.87;;;;;;;;;;4945851;28;20247;-51
2022/12/25 08:12:13;;;;;;;610.83;280.93;;;;;;;;;;4946103;28;20309;-51
2022/12/25 08:14:39;;;;;;;525.47;243.13;;;;;;;;;;4970974;28;20217;-51
2022/12/25 08:17:05;;;;;;;732.77;340.87;;;;;;;;;;4962122;28;20665;-51
2022/12/25 08:19:31;;;;;;;606.00;272.33;;;;;;;;;;4976258;28;20488;-52
2022/12/25 08:21:57;;;;;;;627.13;284.30;;;;;;;;;;4953513;28;20180;-51
2022/12/25 08:24:23;;;;;;;719.03;331.00;;;;;;;;;;4952976;28;20287;-51
2022/12/25 08:26:49;;;;;;;637.33;293.50;;;;;;;;;;4955131;28;20621;-51
2022/12/25 08:29:15;;;;;;;636.40;289.47;;;;;;;;;;4963662;28;20295;-51
2022/12/25 08:31:42;;;;;;;550.93;255.97;;;;;;;;;;4964820;28;20563;-52
2022/12/25 08:34:08;;;;;;;580.03;255.57;;;;;;;;;;4969826;28;20232;-51
2022/12/25 08:36:34;;;;;;;696.37;335.00;;;;;;;;;;4954315;28;20217;-57
2022/12/25 08:39:00;;;;;;;609.20;279.67;;;;;;;;;;4973450;28;20323;-51
2022/12/25 08:41:26;;;;;;;543.57;249.87;;;;;;;;;;4972261;28;20220;-52
2022/12/25 08:43:52;;;;;;;502.97;230.17;;;;;;;;;;4974306;28;20315;-51
2022/12/25 08:46:19;;;;;;;718.87;337.03;;;;;;;;;;4938682;28;20181;-51
2022/12/25 08:48:45;;;;;;;715.17;340.60;;;;;;;;;;4942375;28;21288;-51
2022/12/25 08:51:15;;;;;;;767.53;366.60;;;;;;;;;;4949839;28;20213;-51
2022/12/25 08:53:42;;;;;;;611.03;274.87;;;;;;;;;;4949698;28;20217;-49
2022/12/25 08:56:08;;;;;;;497.53;230.50;;;;;;;;;;4953681;28;20221;-51
2022/12/25 08:58:34;;;;;;;625.77;296.30;;;;;;;;;;4970675;28;20212;-51
2022/12/25 09:01:00;;;;;;;582.13;273.03;;;;;;;;;;4966914;28;20231;-51
2022/12/25 09:03:26;;;;;;;694.03;331.23;;;;;;;;;;4966659;28;20307;-52
2022/12/25 09:05:53;;;;;;;571.80;276.37;;;;;;;;;;4969279;28;20695;-51
2022/12/25 09:08:20;;;;;;;590.50;274.27;;;;;;;;;;4966625;28;20231;-51
2022/12/25 09:10:46;;;;;;;523.27;244.90;;;;;;;;;;4967737;28;20184;-53
2022/12/25 09:13:13;;;;;;;611.40;281.87;;;;;;;;;;4964450;28;20444;-51
2022/12/25 09:15:39;;;;;;;643.90;300.10;;;;;;;;;;4966674;28;20232;-51
2022/12/25 09:18:05;;;;;;;549.37;253.50;;;;;;;;;;4976681;28;20221;-51
2022/12/25 09:20:31;;;;;;;588.73;275.73;;;;;;;;;;4964842;28;20269;-50
2022/12/25 09:22:57;;;;;;;644.90;306.37;;;;;;;;;;4956050;28;20295;-50
2022/12/25 09:25:23;;;;;;;511.80;241.23;;;;;;;;;;4951185;28;20185;-50
2022/12/25 09:27:49;;;;;;;563.33;259.67;;;;;;;;;;4951434;28;20637;-50
2022/12/25 09:30:15;;;;;;;551.27;256.43;;;;;;;;;;4948936;28;20284;-50
2022/12/25 09:32:41;;;;;;;702.13;336.00;;;;;;;;;;4956346;28;20320;-50
2022/12/25 09:35:08;;;;;;;654.97;311.13;;;;;;;;;;4952266;28;20209;-51
2022/12/25 09:37:34;;;;;;;576.03;272.20;;;;;;;;;;4972944;28;20744;-50
2022/12/25 09:40:00;;;;;;;480.37;223.67;;;;;;;;;;4969429;28;20677;-50
2022/12/25 09:42:27;;;;;;;590.60;272.63;;;;;;;;;;4966219;28;21458;-50
2022/12/25 09:44:53;;;;;;;699.87;329.63;;;;;;;;;;4949796;28;20241;-50
2022/12/25 09:47:21;;;;;;;649.17;303.73;;;;;;;;;;4950909;28;20661;-50
2022/12/25 09:52:42;;;;;;;601.50;250.77;;;;;;;;;;5066863;27;20655;-55
2022/12/25 09:55:17;;;;;;;664.13;259.77;;;;;;;;;;5045865;28;20408;-55
2022/12/25 09:57:43;;;;;;;575.67;231.77;;;;;;;;;;5042995;28;20707;-56
2022/12/25 10:00:17;;;;;;;671.97;268.43;;;;;;;;;;5039004;28;20382;-55
2022/12/25 10:02:46;;;;;;;531.93;221.23;;;;;;;;;;5046304;28;20525;-55
2022/12/25 10:05:31;;;;;;;508.83;203.90;;;;;;;;;;5063111;28;20213;-55
2022/12/25 10:08:09;;;;;;;564.90;236.50;;;;;;;;;;5035568;28;20452;-55
2022/12/25 10:10:38;;;;;;;611.90;242.37;;;;;;;;;;5040588;28;20627;-54
2022/12/25 10:13:11;;;;;;;539.53;222.07;;;;;;;;;;5054151;28;20206;-56
2022/12/25 10:15:40;;;;;;;812.47;346.17;;;;;;;;;;5034563;28;21047;-55
2022/12/25 10:18:20;;;;;;;574.47;238.30;;;;;;;;;;5039761;28;20344;-56
2022/12/25 10:20:53;;;;;;;689.10;281.13;;;;;;;;;;5039841;28;20224;-54
2022/12/25 10:23:22;;;;;;;581.83;234.27;;;;;;;;;;5056868;28;20275;-56
2022/12/25 10:25:48;;;;;;;570.13;234.57;;;;;;;;;;5039218;28;20662;-54
2022/12/25 10:28:19;;;;;;;558.50;227.27;;;;;;;;;;5059794;28;20179;-55
2022/12/25 10:30:45;;;;;;;861.30;376.93;;;;;;;;;;5012530;28;20308;-54
2022/12/25 10:33:13;;;;;;;505.23;197.60;;;;;;;;;;5047126;28;20214;-55
2022/12/25 10:35:40;;;;;;;642.73;248.13;;;;;;;;;;5052706;28;20210;-56
2022/12/25 10:38:12;;;;;;;547.93;221.37;;;;;;;;;;5043813;28;20670;-54
2022/12/25 10:45:07;;;;;;;577.23;247.43;;;;;;;;;;5063528;27;20629;-54
2022/12/25 10:47:36;;;;;;;708.40;303.50;;;;;;;;;;5040551;28;20238;-54
2022/12/25 10:50:08;;;;;;;615.57;255.70;;;;;;;;;;5041452;28;20217;-54
2022/12/25 10:52:34;;;;;;;618.17;274.33;;;;;;;;;;5036967;28;20213;-56
2022/12/25 10:55:09;;;;;;;572.60;248.17;;;;;;;;;;5042740;28;20185;-54
2022/12/25 10:57:44;;;;;;;549.37;244.97;;;;;;;;;;5046011;28;20296;-54
2022/12/25 11:00:24;;;;;;;683.00;302.17;;;;;;;;;;5031562;28;20300;-55
2022/12/25 11:02:50;;;;;;;633.60;275.73;;;;;;;;;;5035022;28;20222;-54
2022/12/25 11:05:22;;;;;;;548.67;239.93;;;;;;;;;;5039234;28;20257;-54
2022/12/25 11:07:55;;;;;;;506.83;222.13;;;;;;;;;;5039391;28;20200;-55
2022/12/25 11:10:24;;;;;;;596.37;261.03;;;;;;;;;;5033170;28;20903;-55
2022/12/25 11:12:50;;;;;;;529.10;235.23;;;;;;;;;;5041070;28;20222;-54
2022/12/25 11:15:32;;;;;;;598.50;262.73;;;;;;;;;;5053606;28;20210;-53
2022/12/25 11:17:58;;;;;;;597.10;275.47;;;;;;;;;;5036736;28;20887;-52
2022/12/25 11:20:24;;;;;;;491.93;209.63;;;;;;;;;;5036058;28;20210;-54
2022/12/25 11:22:50;;;;;;;636.83;274.63;;;;;;;;;;5027062;28;20493;-55
2022/12/25 11:25:24;;;;;;;610.77;265.17;;;;;;;;;;5044132;28;20216;-55
2022/12/25 11:27:58;;;;;;;568.90;252.47;;;;;;;;;;5048908;28;20242;-55
2022/12/25 11:30:24;;;;;;;631.00;273.07;;;;;;;;;;5045520;28;20312;-56
2022/12/25 11:32:54;;;;;;;580.60;240.53;;;;;;;;;;5049522;28;20214;-55
2022/12/25 11:35:21;;;;;;;539.60;229.93;;;;;;;;;;5046110;28;20300;-55
2022/12/25 11:37:51;;;;;;;610.53;263.47;;;;;;;;;;5060417;28;20202;-56
2022/12/25 11:40:21;;;;;;;657.83;278.63;;;;;;;;;;5056450;28;20962;-53
2022/12/25 11:42:52;;;;;;;540.37;230.93;;;;;;;;;;5055997;28;20570;-56
2022/12/25 11:45:20;;;;;;;585.57;244.87;;;;;;;;;;5048533;28;20304;-54
2022/12/25 11:47:49;;;;;;;614.03;263.83;;;;;;;;;;5050967;28;20210;-55
2022/12/25 11:50:19;;;;;;;448.37;195.23;;;;;;;;;;5061947;28;20217;-55
2022/12/25 11:52:46;;;;;;;567.63;246.63;;;;;;;;;;5063749;28;20198;-53
2022/12/25 11:55:22;;;;;;;532.63;222.77;;;;;;;;;;5052322;28;20190;-54
2022/12/25 11:57:52;;;;;;;443.80;195.10;;;;;;;;;;5049670;28;20223;-54
2022/12/25 12:00:19;;;;;;;517.03;217.57;;;;;;;;;;5047736;28;20807;-54
2022/12/25 12:02:49;;;;;;;604.07;261.73;;;;;;;;;;5057693;28;20554;-54
2022/12/25 12:05:29;;;;;;;615.97;273.47;;;;;;;;;;5044182;28;20289;-55
2022/12/25 12:07:57;;;;;;;615.70;252.23;;;;;;;;;;5050635;28;20313;-54
2022/12/25 12:10:35;;;;;;;603.83;248.17;;;;;;;;;;5048270;28;20244;-54
2022/12/25 12:13:01;;;;;;;587.27;250.83;;;;;;;;;;5047776;28;20223;-54
2022/12/25 12:15:29;;;;;;;658.77;278.03;;;;;;;;;;5048957;28;20237;-54
2022/12/25 12:17:55;;;;;;;586.17;247.50;;;;;;;;;;5054650;28;20581;-55
2022/12/25 12:20:32;;;;;;;664.43;287.20;;;;;;;;;;5046882;28;20432;-54
2022/12/25 12:22:59;;;;;;;584.87;251.17;;;;;;;;;;5050098;28;20328;-55
2022/12/25 12:25:25;;;;;;;558.93;220.67;;;;;;;;;;5053320;28;20705;-55
2022/12/25 12:27:53;;;;;;;479.50;198.90;;;;;;;;;;5061570;28;20567;-54
2022/12/25 12:30:27;;;;;;;517.60;211.03;;;;;;;;;;5058387;28;20352;-56
2022/12/25 12:32:57;;;;;;;535.30;222.63;;;;;;;;;;5058813;28;20234;-55
2022/12/25 12:35:28;;;;;;;469.67;190.10;;;;;;;;;;5063752;28;20561;-57
2022/12/25 12:37:59;;;;;;;450.40;186.47;;;;;;;;;;5062330;28;20345;-56
2022/12/25 12:40:34;;;;;;;539.10;219.00;;;;;;;;;;5067607;28;20368;-56
2022/12/25 12:43:01;;;;;;;524.93;211.03;;;;;;;;;;5070864;28;20306;-58
2022/12/25 12:45:34;;;;;;;470.90;194.73;;;;;;;;;;5068419;28;20214;-57
2022/12/25 12:48:13;;;;;;;476.47;187.53;;;;;;;;;;5070622;28;20226;-58
2022/12/25 12:50:40;;;;;;;513.40;205.67;;;;;;;;;;5071958;28;20366;-58
2022/12/25 12:53:32;;;;;;;521.47;216.00;;;;;;;;;;5067635;28;20250;-56
2022/12/25 12:56:12;;;;;;;507.50;212.90;;;;;;;;;;5066878;28;20570;-56
2022/12/25 12:58:43;;;;;;;422.43;173.30;;;;;;;;;;5067702;28;20626;-55
2022/12/25 13:01:28;;;;;;;548.67;211.57;;;;;;;;;;5069611;28;20183;-56
2022/12/25 13:04:18;;;;;;;430.60;177.47;;;;;;;;;;5066154;28;20582;-56
2022/12/25 13:06:58;;;;;;;528.37;210.53;;;;;;;;;;5067396;28;20268;-56
2022/12/25 13:09:27;;;;;;;485.40;198.00;;;;;;;;;;5067141;28;20222;-57
2022/12/25 13:11:53;;;;;;;515.00;207.57;;;;;;;;;;5067447;28;20211;-56
2022/12/25 13:14:20;;;;;;;498.77;199.07;;;;;;;;;;5070039;28;20266;-56
2022/12/25 13:16:48;;;;;;;434.23;181.27;;;;;;;;;;5071667;28;20654;-57
2022/12/25 13:19:16;;;;;;;521.17;205.90;;;;;;;;;;5067288;28;21039;-57
2022/12/25 13:21:51;;;;;;;520.07;208.50;;;;;;;;;;5070341;28;20214;-57
2022/12/25 13:24:22;;;;;;;447.23;191.43;;;;;;;;;;5065751;28;20312;-57
2022/12/25 13:26:48;;;;;;;538.00;206.30;;;;;;;;;;5063195;28;20198;-57
2022/12/25 13:29:28;;;;;;;467.93;189.60;;;;;;;;;;5067228;28;20272;-56
2022/12/25 13:31:55;;;;;;;455.00;185.93;;;;;;;;;;5070011;28;20378;-57
2022/12/25 13:34:26;;;;;;;429.33;179.67;;;;;;;;;;5069779;28;20206;-57
2022/12/25 13:36:53;;;;;;;513.20;206.13;;;;;;;;;;5066106;28;20202;-56
2022/12/25 13:39:20;;;;;;;519.97;210.33;;;;;;;;;;5063464;28;20210;-56
2022/12/25 13:42:07;;;;;;;439.07;183.73;;;;;;;;;;5069414;28;20210;-56
2022/12/25 13:44:56;;;;;;;445.87;185.27;;;;;;;;;;5066021;28;20229;-57
2022/12/25 13:47:26;;;;;;;525.07;215.87;;;;;;;;;;5060614;28;20508;-57
2022/12/25 13:49:53;;;;;;;540.03;218.03;;;;;;;;;;5064738;28;20286;-56
2022/12/25 13:52:33;;;;;;;506.93;209.03;;;;;;;;;;5067949;28;20556;-57
2022/12/25 13:55:01;;;;;;;446.60;185.20;;;;;;;;;;5065194;28;20260;-56
2022/12/25 13:57:28;;;;;;;465.77;195.93;;;;;;;;;;5063167;28;20218;-57
2022/12/25 13:59:55;;;;;;;535.77;211.73;;;;;;;;;;5062456;28;20630;-57
2022/12/25 14:02:23;;;;;;;514.80;206.93;;;;;;;;;;5065187;28;20215;-57
2022/12/25 14:04:49;;;;;;;562.93;227.80;;;;;;;;;;5066675;28;20181;-57
2022/12/25 14:07:18;;;;;;;437.20;175.20;;;;;;;;;;5068358;28;20175;-57
2022/12/25 14:09:44;;;;;;;452.87;184.37;;;;;;;;;;5064141;28;20203;-57
2022/12/25 14:12:10;;;;;;;489.20;198.50;;;;;;;;;;5065332;28;20412;-57
2022/12/25 14:14:36;;;;;;;574.63;233.27;;;;;;;;;;5061484;28;21111;-57
2022/12/25 14:17:02;;;;;;;558.50;217.93;;;;;;;;;;5064825;28;20210;-57
2022/12/25 14:19:32;;;;;;;501.03;199.13;;;;;;;;;;5064285;28;20184;-57
2022/12/25 14:22:03;;;;;;;574.57;229.60;;;;;;;;;;5059728;28;20316;-56
2022/12/25 14:24:30;;;;;;;481.40;198.87;;;;;;;;;;5063472;28;20300;-57
2022/12/25 14:26:59;;;;;;;587.83;232.43;;;;;;;;;;5063756;28;20848;-57
2022/12/25 14:29:27;;;;;;;571.17;244.07;;;;;;;;;;5060923;28;20211;-57
2022/12/25 14:31:57;;;;;;;488.30;195.60;;;;;;;;;;5063013;28;20242;-57
2022/12/25 14:34:24;;;;;;;601.30;239.93;;;;;;;;;;5064956;28;20282;-57
2022/12/25 14:36:51;;;;;;;599.83;246.47;;;;;;;;;;5060928;28;20209;-57
2022/12/25 14:39:25;;;;;;;578.83;231.20;;;;;;;;;;5063050;28;20702;-57
2022/12/25 14:41:52;;;;;;;523.60;210.13;;;;;;;;;;5061261;28;20218;-56
2022/12/25 14:44:32;;;;;;;628.80;247.23;;;;;;;;;;5064657;28;21020;-56
2022/12/25 14:47:11;;;;;;;456.77;189.43;;;;;;;;;;5061854;28;20572;-55
2022/12/25 14:49:37;;;;;;;503.30;205.93;;;;;;;;;;5064334;28;21106;-56
2022/12/25 14:52:16;;;;;;;546.30;216.53;;;;;;;;;;5068314;28;20646;-55
2022/12/25 14:55:02;;;;;;;618.73;246.90;;;;;;;;;;5066426;28;20221;-56
2022/12/25 14:57:30;;;;;;;558.63;227.87;;;;;;;;;;5069444;28;20397;-55
2022/12/25 14:59:58;;;;;;;455.60;187.53;;;;;;;;;;5069288;28;20723;-58
2022/12/25 15:02:25;;;;;;;584.03;228.30;;;;;;;;;;5065519;28;20566;-56
2022/12/25 15:04:52;;;;;;;614.37;247.97;;;;;;;;;;5068489;28;20438;-56
2022/12/25 15:07:24;;;;;;;569.17;231.53;;;;;;;;;;5067588;28;20256;-56
2022/12/25 15:09:50;;;;;;;511.43;204.87;;;;;;;;;;5067081;28;20214;-56
2022/12/25 15:12:16;;;;;;;533.30;213.60;;;;;;;;;;5063126;28;20214;-55
2022/12/25 15:14:42;;;;;;;516.80;204.90;;;;;;;;;;5064842;28;20289;-58
2022/12/25 15:17:13;;;;;;;427.97;172.30;;;;;;;;;;5063944;28;20221;-58
2022/12/25 15:19:39;;;;;;;611.13;243.47;;;;;;;;;;5064719;28;20408;-58
2022/12/25 15:22:05;;;;;;;535.80;217.47;;;;;;;;;;5062806;28;20181;-58
2022/12/25 15:24:31;;;;;;;482.13;187.37;;;;;;;;;;5068544;28;20368;-58
2022/12/25 15:26:59;;;;;;;466.23;189.13;;;;;;;;;;5064560;28;20286;-57
2022/12/25 15:29:25;;;;;;;464.87;184.53;;;;;;;;;;5067158;28;20221;-55
2022/12/25 15:31:50;;;;;;;587.07;225.83;;;;;;;;;;5068519;28;20211;-55
2022/12/25 15:34:19;;;;;;;488.13;192.37;;;;;;;;;;5072670;28;20298;-54
2022/12/25 15:36:46;;;;;;;553.40;223.40;;;;;;;;;;5068331;28;20215;-55
2022/12/25 15:39:12;;;;;;;576.53;230.60;;;;;;;;;;5066918;28;20266;-55
2022/12/25 15:44:23;;;;;;;466.50;188.80;;;;;;;;;;5069833;28;20241;-55
2022/12/25 15:46:49;;;;;;;536.40;212.13;;;;;;;;;;5066513;28;20355;-55
2022/12/25 15:51:44;;;;;;;462.07;206.23;;;;;;;;;;5012405;28;20323;-47
2022/12/25 15:54:10;;;;;;;526.40;233.17;;;;;;;;;;5025295;28;20284;-47